F/V Renaissance II — FMEW — position and weather

sailwx.info

Track history (hours):
 
Tides and Currents Weather Stations Pressure Air Temp Water Temp Dewpoint Dewpoint Depression Visibility Wind Speed Wind Dir Waves Ship Positions

F/V Renaissance II

Last reported at 2015-Apr-27 04:07 UTC. Time now 2015-Apr-28 10:24 UTC.
Position N 46°08' W 001°57'.

Length 18 m.

Type: Fishing. MMSI: 228216600.

Date/timePositionNaut miles runAvg speedWind from/ knotsBaromVisibWave heightAir tempDewpointWater temp
2015-Apr-27 04:07N 46°08' W 001°57'5 9.4
2015-Apr-27 03:33N 46°13' W 001°55'10 9.9
2015-Apr-27 02:33N 46°22' W 001°50'8 7.7
2015-Apr-27 01:33N 46°30' W 001°47'2 1.6
2015-Apr-27 00:33N 46°28' W 001°47'9 9.1
2015-Apr-26 23:33N 46°20' W 001°51'37 0.8
2015-Apr-25 02:24N 46°25' W 002°44'8 9.6
2015-Apr-25 01:33N 46°26' W 002°32'10 9.9
2015-Apr-25 00:33N 46°26' W 002°18'1010.0
2015-Apr-24 23:33N 46°27' W 002°03'10 9.7
2015-Apr-24 22:33N 46°28' W 001°49'2 1.9
2015-Apr-24 21:33N 46°30' W 001°48'0 0.0
2015-Apr-24 20:33N 46°30' W 001°48'0 0.0
2015-Apr-24 19:33N 46°30' W 001°48'0 0.0
2015-Apr-24 18:33N 46°30' W 001°48'0 0.0
2015-Apr-24 17:33N 46°30' W 001°48'0 0.0
2015-Apr-24 16:33N 46°30' W 001°48'0 0.0
2015-Apr-24 15:33N 46°30' W 001°48'0 0.0
2015-Apr-24 14:33N 46°30' W 001°48'0 0.0
2015-Apr-24 13:33N 46°30' W 001°48'0 0.0
2015-Apr-24 12:33N 46°30' W 001°48'0 0.0
2015-Apr-24 11:33N 46°30' W 001°48'0 0.0
2015-Apr-24 10:33N 46°30' W 001°48'0 0.0
2015-Apr-24 09:33N 46°30' W 001°48'0 0.0
2015-Apr-24 08:33N 46°30' W 001°48'0 0.0
2015-Apr-24 07:33N 46°30' W 001°48'0 0.1
2015-Apr-24 06:33N 46°30' W 001°47'0 0.0
2015-Apr-24 05:33N 46°30' W 001°47'0 0.0
2015-Apr-24 04:33N 46°30' W 001°47'0 0.0
2015-Apr-24 03:33N 46°30' W 001°47'0 0.0
2015-Apr-24 02:33N 46°30' W 001°47'0 0.0
2015-Apr-24 01:33N 46°30' W 001°47'0 0.0
2015-Apr-24 00:33N 46°30' W 001°47'0 0.0
2015-Apr-23 23:33N 46°30' W 001°47'0 0.0
2015-Apr-23 22:33N 46°30' W 001°47'0 0.0
2015-Apr-23 21:33N 46°30' W 001°47'0 0.0
2015-Apr-23 20:33N 46°30' W 001°47'0 0.0
2015-Apr-23 19:33N 46°30' W 001°47'0 0.0
2015-Apr-23 18:33N 46°30' W 001°47'0 0.0
2015-Apr-23 17:33N 46°30' W 001°47'0 0.2
2015-Apr-23 16:33N 46°30' W 001°47'2 2.4
2015-Apr-23 15:33N 46°28' W 001°48'9 8.9
2015-Apr-23 14:33N 46°19' W 001°53'9 3.9
2015-Apr-23 12:12N 46°10' W 001°56'75 4.2
2015-Apr-22 18:15N 44°57' W 001°34'3 0.5
2015-Apr-22 12:33N 44°55' W 001°37'2 0.9
2015-Apr-22 10:33N 44°54' W 001°36'1 1.3
2015-Apr-22 09:33N 44°54' W 001°35'1 1.0
2015-Apr-22 08:33N 44°55' W 001°36'0 0.3
2015-Apr-22 07:28N 44°55' W 001°35'3 0.9
2015-Apr-22 04:32N 44°57' W 001°37'1 0.1
2015-Apr-22 00:30N 44°58' W 001°37'65 2.6
2015-Apr-20 23:13N 46°02' W 001°30'6 8.8
2015-Apr-20 22:33N 46°06' W 001°24'8 8.0
2015-Apr-20 21:33N 46°09' W 001°13'0 0.0
2015-Apr-20 20:25N 46°09' W 001°13'1 1.5
2015-Apr-20 19:33N 46°08' W 001°15'7 7.1
2015-Apr-20 18:33N 46°06' W 001°24'8 8.1
2015-Apr-20 17:33N 45°60' W 001°32'  
2015-Apr-18 03:17N 46°06' W 001°48'7 9.0
2015-Apr-18 02:33N 46°12' W 001°48'9 8.6
2015-Apr-18 01:33N 46°21' W 001°47'9 8.7
2015-Apr-18 00:33N 46°30' W 001°48'0 0.2
2015-Apr-17 23:33N 46°30' W 001°47'0 0.0
2015-Apr-17 22:33N 46°30' W 001°47'0 0.0
2015-Apr-17 21:33N 46°30' W 001°47'0 0.0
2015-Apr-17 20:33N 46°30' W 001°47'0 0.0
2015-Apr-17 19:33N 46°30' W 001°47'0 0.0
2015-Apr-17 18:33N 46°30' W 001°47'0 0.0
2015-Apr-17 17:33N 46°30' W 001°47'0 0.0
2015-Apr-17 16:33N 46°30' W 001°47'0 0.0
2015-Apr-17 15:33N 46°30' W 001°47'0 0.0
2015-Apr-17 14:33N 46°30' W 001°47'0 0.0
2015-Apr-17 13:33N 46°30' W 001°47'0 0.0
2015-Apr-17 12:33N 46°30' W 001°47'0 0.0
2015-Apr-17 11:33N 46°30' W 001°48'0 0.0
2015-Apr-17 10:33N 46°30' W 001°47'0 0.0
2015-Apr-17 09:33N 46°30' W 001°47'0 0.0
2015-Apr-17 08:33N 46°30' W 001°47'0 0.0
2015-Apr-17 07:33N 46°30' W 001°47'0 0.0
2015-Apr-17 06:33N 46°30' W 001°47'0 0.0
2015-Apr-17 05:33N 46°30' W 001°47'0 0.0
2015-Apr-17 04:33N 46°30' W 001°47'  
Track history (hours):
 
Tides and Currents Weather Stations Pressure Air Temp Water Temp Dewpoint Dewpoint Depression Visibility Wind Speed Wind Dir Waves Ship Positions

F/V Renaissance II

Last reported at 2015-Apr-27 04:07 UTC. Time now 2015-Apr-28 10:24 UTC.
Position N 46°08' W 001°57'.

Length 18 m.

Type: Fishing. MMSI: 228216600.

Date/timePositionNaut miles runAvg speedWind from/ knotsBaromVisibWave heightAir tempDewpointWater temp
2015-Apr-27 04:07N 46°08' W 001°57'5 9.4
2015-Apr-27 03:33N 46°13' W 001°55'10 9.9
2015-Apr-27 02:33N 46°22' W 001°50'8 7.7
2015-Apr-27 01:33N 46°30' W 001°47'2 1.6
2015-Apr-27 00:33N 46°28' W 001°47'9 9.1
2015-Apr-26 23:33N 46°20' W 001°51'37 0.8
2015-Apr-25 02:24N 46°25' W 002°44'8 9.6
2015-Apr-25 01:33N 46°26' W 002°32'10 9.9
2015-Apr-25 00:33N 46°26' W 002°18'1010.0
2015-Apr-24 23:33N 46°27' W 002°03'10 9.7
2015-Apr-24 22:33N 46°28' W 001°49'2 1.9
2015-Apr-24 21:33N 46°30' W 001°48'0 0.0
2015-Apr-24 20:33N 46°30' W 001°48'0 0.0
2015-Apr-24 19:33N 46°30' W 001°48'0 0.0
2015-Apr-24 18:33N 46°30' W 001°48'0 0.0
2015-Apr-24 17:33N 46°30' W 001°48'0 0.0
2015-Apr-24 16:33N 46°30' W 001°48'0 0.0
2015-Apr-24 15:33N 46°30' W 001°48'0 0.0
2015-Apr-24 14:33N 46°30' W 001°48'0 0.0
2015-Apr-24 13:33N 46°30' W 001°48'0 0.0
2015-Apr-24 12:33N 46°30' W 001°48'0 0.0
2015-Apr-24 11:33N 46°30' W 001°48'0 0.0
2015-Apr-24 10:33N 46°30' W 001°48'0 0.0
2015-Apr-24 09:33N 46°30' W 001°48'0 0.0
2015-Apr-24 08:33N 46°30' W 001°48'0 0.0
2015-Apr-24 07:33N 46°30' W 001°48'0 0.1
2015-Apr-24 06:33N 46°30' W 001°47'0 0.0
2015-Apr-24 05:33N 46°30' W 001°47'0 0.0
2015-Apr-24 04:33N 46°30' W 001°47'0 0.0
2015-Apr-24 03:33N 46°30' W 001°47'0 0.0
2015-Apr-24 02:33N 46°30' W 001°47'0 0.0
2015-Apr-24 01:33N 46°30' W 001°47'0 0.0
2015-Apr-24 00:33N 46°30' W 001°47'0 0.0
2015-Apr-23 23:33N 46°30' W 001°47'0 0.0
2015-Apr-23 22:33N 46°30' W 001°47'0 0.0
2015-Apr-23 21:33N 46°30' W 001°47'0 0.0
2015-Apr-23 20:33N 46°30' W 001°47'0 0.0
2015-Apr-23 19:33N 46°30' W 001°47'0 0.0
2015-Apr-23 18:33N 46°30' W 001°47'0 0.0
2015-Apr-23 17:33N 46°30' W 001°47'0 0.2
2015-Apr-23 16:33N 46°30' W 001°47'2 2.4
2015-Apr-23 15:33N 46°28' W 001°48'9 8.9
2015-Apr-23 14:33N 46°19' W 001°53'9 3.9
2015-Apr-23 12:12N 46°10' W 001°56'75 4.2
2015-Apr-22 18:15N 44°57' W 001°34'3 0.5
2015-Apr-22 12:33N 44°55' W 001°37'2 0.9
2015-Apr-22 10:33N 44°54' W 001°36'1 1.3
2015-Apr-22 09:33N 44°54' W 001°35'1 1.0
2015-Apr-22 08:33N 44°55' W 001°36'0 0.3
2015-Apr-22 07:28N 44°55' W 001°35'3 0.9
2015-Apr-22 04:32N 44°57' W 001°37'1 0.1
2015-Apr-22 00:30N 44°58' W 001°37'65 2.6
2015-Apr-20 23:13N 46°02' W 001°30'6 8.8
2015-Apr-20 22:33N 46°06' W 001°24'8 8.0
2015-Apr-20 21:33N 46°09' W 001°13'0 0.0
2015-Apr-20 20:25N 46°09' W 001°13'1 1.5
2015-Apr-20 19:33N 46°08' W 001°15'7 7.1
2015-Apr-20 18:33N 46°06' W 001°24'8 8.1
2015-Apr-20 17:33N 45°60' W 001°32'  
2015-Apr-18 03:17N 46°06' W 001°48'7 9.0
2015-Apr-18 02:33N 46°12' W 001°48'9 8.6
2015-Apr-18 01:33N 46°21' W 001°47'9 8.7
2015-Apr-18 00:33N 46°30' W 001°48'0 0.2
2015-Apr-17 23:33N 46°30' W 001°47'0 0.0
2015-Apr-17 22:33N 46°30' W 001°47'0 0.0
2015-Apr-17 21:33N 46°30' W 001°47'0 0.0
2015-Apr-17 20:33N 46°30' W 001°47'0 0.0
2015-Apr-17 19:33N 46°30' W 001°47'0 0.0
2015-Apr-17 18:33N 46°30' W 001°47'0 0.0
2015-Apr-17 17:33N 46°30' W 001°47'0 0.0
2015-Apr-17 16:33N 46°30' W 001°47'0 0.0
2015-Apr-17 15:33N 46°30' W 001°47'0 0.0
2015-Apr-17 14:33N 46°30' W 001°47'0 0.0
2015-Apr-17 13:33N 46°30' W 001°47'0 0.0
2015-Apr-17 12:33N 46°30' W 001°47'0 0.0
2015-Apr-17 11:33N 46°30' W 001°48'0 0.0
2015-Apr-17 10:33N 46°30' W 001°47'0 0.0
2015-Apr-17 09:33N 46°30' W 001°47'0 0.0
2015-Apr-17 08:33N 46°30' W 001°47'0 0.0
2015-Apr-17 07:33N 46°30' W 001°47'0 0.0
2015-Apr-17 06:33N 46°30' W 001°47'0 0.0
2015-Apr-17 05:33N 46°30' W 001°47'0 0.0
2015-Apr-17 04:33N 46°30' W 001°47'  

Dump ship's entire track history